Terminal Aerodrome Forecast
Issued by NWS Knoxville/Tri Cities, TN

Home | Current Version | Previous Version | Text Only | Print | Product List | Glossary On
Versions: 1 2 3 4 5 6 7 8 9 10 11 12 13 14 15 16
000
FTUS44 KMRX 250527
TAFTYS
TAF
KTYS 250527Z 2506/2606 22007KT P6SM SCT150 BKN250
     FM250800 23010KT 5SM -SHRA BR VCTS BKN040CB OVC120
     FM251100 24015KT P6SM VCSH BKN035 OVC080
      TEMPO 2511/2515 5SM -SHRA BR OVC025
     FM251800 25015G25KT P6SM SCT040 BKN250
     FM252100 26011KT P6SM SCT250=

USA.gov is the U.S. government's official web portal to all federal, state and local government web resources and services.